Time;durP1;ratioP1;P1;durP2;ratioP2;P2;SDS_P1;SDS_P2;PMS_P1;PMS_P2;Temp;Humidity;BMP_temperature;BMP_pressure;BME280_temperature;BME280_humidity;BME280_pressure;Samples;Min_cycle;Max_cycle;Signal;HPM_P1;HPM_P2
2021/12/05 00:22:01;;;;;;;;;1.00;0.00;;;;;7.50;64.43;100252.94;5018550;28;45306;-80
2021/12/05 00:24:32;;;;;;;;;1.00;0.00;;;;;7.50;64.26;100256.44;5021593;28;45508;-80
2021/12/05 00:27:04;;;;;;;;;0.50;0.50;;;;;7.52;64.48;100245.91;5019481;28;45225;-80
2021/12/05 00:32:23;;;;;;;;;1.50;1.00;;;;;7.58;64.92;100240.50;5021067;28;45757;-86
2021/12/05 00:56:51;;;;;;;;;1.25;0.00;;;;;7.53;64.27;100208.41;5018412;28;45324;-86
2021/12/05 00:59:31;;;;;;;;;0.25;0.25;;;;;7.53;64.03;100208.41;5006929;28;45485;-86
2021/12/05 01:12:17;;;;;;;;;0.00;0.00;;;;;7.47;64.34;100217.28;5016768;28;45292;-85
2021/12/05 01:17:36;;;;;;;;;3.00;2.75;;;;;7.46;64.36;100214.72;5019736;28;45446;-87
2021/12/05 01:20:06;;;;;;;;;3.25;1.00;;;;;7.52;64.67;100220.63;5019612;28;45473;-87
2021/12/05 01:22:35;;;;;;;;;3.75;0.00;;;;;7.54;64.35;100220.56;5009394;28;45411;-87
2021/12/05 01:25:24;;;;;;;;;0.00;0.00;;;;;7.51;63.96;100213.66;5017627;28;46534;-87
2021/12/05 01:30:34;;;;;;;;;1.50;1.00;;;;;7.56;64.14;100221.38;5020587;28;45331;-88
2021/12/05 01:41:08;;;;;;;;;1.00;1.00;;;;;7.62;64.45;100197.69;5020440;28;45481;-88
2021/12/05 01:55:40;;;;;;;;;0.00;0.00;;;;;7.47;63.80;100187.66;5020114;28;45398;-85
2021/12/05 02:31:08;;;;;;;;;0.25;0.00;;;;;7.42;64.06;100174.72;5019427;28;45768;-90
2021/12/05 02:41:10;;;;;;;;;1.00;1.00;;;;;7.38;63.31;100181.78;5019576;28;45237;-90
2021/12/05 02:43:43;;;;;;;;;1.00;1.00;;;;;7.36;64.56;100169.69;5017315;28;45580;-91
2021/12/05 02:46:12;;;;;;;;;0.00;0.00;;;;;7.34;64.57;100169.69;5008654;28;45281;-91
2021/12/05 02:48:38;;;;;;;;;0.75;0.75;;;;;7.36;64.29;100170.50;5014401;28;46453;-94
2021/12/05 02:51:09;;;;;;;;;2.00;0.00;;;;;7.37;64.63;100163.53;5009652;28;48205;-88
2021/12/05 02:53:41;;;;;;;;;0.00;0.00;;;;;7.37;64.76;100159.16;5018270;28;45649;-91
2021/12/05 02:56:09;;;;;;;;;0.00;0.00;;;;;7.36;64.08;100157.44;5017033;28;45230;-91
2021/12/05 02:58:43;;;;;;;;;0.00;0.00;;;;;7.33;64.68;100154.94;5019382;28;45304;-91
2021/12/05 03:01:28;;;;;;;;;1.00;0.00;;;;;7.30;64.79;100142.81;5019231;28;46323;-89
2021/12/05 03:03:54;;;;;;;;;1.00;1.00;;;;;7.32;64.57;100150.59;5012510;28;45234;-92
2021/12/05 03:06:24;;;;;;;;;0.00;0.00;;;;;7.30;64.35;100148.03;5010537;28;45423;-89
2021/12/05 03:08:58;;;;;;;;;2.00;0.00;;;;;7.32;64.75;100145.34;5014632;28;45288;-90
2021/12/05 03:11:25;;;;;;;;;2.00;1.00;;;;;7.34;64.48;100145.31;5011104;28;45537;-89
2021/12/05 03:13:51;;;;;;;;;2.00;0.75;;;;;7.36;63.93;100146.16;5014573;28;45723;-91
2021/12/05 03:16:19;;;;;;;;;0.00;0.00;;;;;7.32;64.44;100153.22;5012036;28;45180;-91
2021/12/05 03:18:44;;;;;;;;;2.25;0.00;;;;;7.35;63.96;100154.88;5005695;28;46559;-92
2021/12/05 03:21:11;;;;;;;;;1.00;0.00;;;;;7.36;64.17;100154.00;5014404;28;46943;-91
2021/12/05 03:23:41;;;;;;;;;0.00;0.00;;;;;7.36;64.28;100138.31;5019276;28;45233;-91
2021/12/05 03:26:09;;;;;;;;;0.00;0.00;;;;;7.33;64.08;100134.00;5019749;28;45363;-92
2021/12/05 03:28:35;;;;;;;;;0.00;0.00;;;;;7.33;63.70;100141.84;5019412;28;45412;-91
2021/12/05 03:31:02;;;;;;;;;2.00;0.50;;;;;7.26;64.01;100130.69;5014834;28;47386;-92
2021/12/05 03:33:27;;;;;;;;;1.50;0.00;;;;;7.25;64.10;100130.75;5015949;28;45881;-94
2021/12/05 03:35:53;;;;;;;;;0.00;0.00;;;;;7.20;64.59;100131.75;5019893;28;45409;-90
2021/12/05 03:38:18;;;;;;;;;0.00;0.00;;;;;7.21;64.15;100129.97;5022243;28;45370;-89
2021/12/05 03:40:44;;;;;;;;;1.00;1.00;;;;;7.18;64.20;100133.56;5017499;28;45506;-89
2021/12/05 03:43:15;;;;;;;;;0.75;0.00;;;;;7.11;64.38;100137.25;5008222;28;45751;-89
2021/12/05 03:45:44;;;;;;;;;0.00;0.00;;;;;7.05;64.27;100121.72;5008092;28;45324;-88
2021/12/05 03:48:12;;;;;;;;;0.00;0.00;;;;;7.03;63.87;100123.53;5021932;28;45308;-89
2021/12/05 03:50:38;;;;;;;;;0.00;0.00;;;;;7.03;64.51;100128.75;5021724;28;46173;-89
2021/12/05 03:53:06;;;;;;;;;1.25;0.00;;;;;7.01;64.38;100122.72;5019217;28;45310;-89
2021/12/05 03:55:32;;;;;;;;;0.00;0.00;;;;;7.03;63.99;100124.41;5021105;28;45250;-91
2021/12/05 03:57:57;;;;;;;;;1.00;1.00;;;;;7.00;63.95;100114.03;5012358;28;47315;-89
2021/12/05 04:00:28;;;;;;;;;1.00;1.00;;;;;7.00;64.13;100116.63;5017939;28;46298;-87
2021/12/05 04:02:55;;;;;;;;;0.00;0.00;;;;;7.01;63.96;100117.50;5022086;28;45608;-90
2021/12/05 04:05:22;;;;;;;;;0.00;0.00;;;;;6.98;63.58;100116.69;5018642;28;45495;-88
2021/12/05 04:07:47;;;;;;;;;0.00;0.00;;;;;6.99;64.51;100114.91;5019391;28;45328;-90
2021/12/05 04:10:13;;;;;;;;;3.00;0.00;;;;;6.96;64.10;100118.47;5006236;28;46299;-89
2021/12/05 04:12:40;;;;;;;;;0.00;0.00;;;;;6.94;64.13;100125.50;5004124;28;45592;-88
2021/12/05 04:15:06;;;;;;;;;0.25;0.00;;;;;6.93;64.18;100115.94;5022039;28;45414;-86
2021/12/05 04:17:32;;;;;;;;;0.00;0.00;;;;;6.94;64.18;100130.72;5008089;28;45154;-86
2021/12/05 04:19:57;;;;;;;;;0.00;0.00;;;;;6.93;64.47;100118.56;5021682;28;45315;-81
2021/12/05 04:22:23;;;;;;;;;0.00;0.00;;;;;6.92;64.39;100121.19;5021197;28;45174;-84
2021/12/05 04:24:49;;;;;;;;;1.25;0.00;;;;;6.92;64.14;100115.97;5017551;28;45276;-85
2021/12/05 04:27:16;;;;;;;;;0.00;0.00;;;;;6.90;64.32;100128.22;5033162;28;46244;-85
2021/12/05 04:29:41;;;;;;;;;1.00;0.00;;;;;6.90;64.07;100123.88;5018623;28;45530;-83
2021/12/05 04:32:08;;;;;;;;;0.00;0.00;;;;;6.88;63.94;100120.44;5016653;28;45367;-83
2021/12/05 04:34:34;;;;;;;;;1.00;0.00;;;;;6.82;64.21;100118.84;5008058;28;45413;-84
2021/12/05 04:37:00;;;;;;;;;0.00;0.00;;;;;6.82;64.05;100131.91;5019926;28;45612;-86
2021/12/05 04:39:27;;;;;;;;;1.00;1.00;;;;;6.76;63.85;100121.66;5016866;28;46108;-87
2021/12/05 04:41:54;;;;;;;;;0.00;0.00;;;;;6.75;63.74;100115.56;5021024;28;45698;-85
2021/12/05 04:44:22;;;;;;;;;0.00;0.00;;;;;6.73;63.99;100117.34;5013838;28;45389;-87
2021/12/05 04:46:48;;;;;;;;;0.00;0.00;;;;;6.76;64.15;100111.19;5013953;28;45327;-85
2021/12/05 04:49:14;;;;;;;;;0.00;0.00;;;;;6.73;64.06;100117.34;5016501;28;47704;-83
2021/12/05 04:51:42;;;;;;;;;0.00;0.00;;;;;6.72;64.21;100115.63;5013961;28;45415;-86
2021/12/05 04:54:14;;;;;;;;;0.25;0.25;;;;;6.72;63.65;100114.75;5009811;28;45170;-85
2021/12/05 04:56:40;;;;;;;;;0.00;0.00;;;;;6.71;64.65;100108.72;5020759;28;45440;-85
2021/12/05 04:59:15;;;;;;;;;1.00;0.00;;;;;6.73;64.03;100117.34;5021080;28;45364;-85
2021/12/05 05:01:46;;;;;;;;;0.00;0.00;;;;;6.71;63.48;100121.78;5020780;28;45750;-83
2021/12/05 05:04:28;;;;;;;;;1.00;0.00;;;;;6.70;63.74;100125.25;5011272;28;45396;-82
2021/12/05 05:06:58;;;;;;;;;0.75;0.75;;;;;6.63;64.25;100108.91;5018101;28;45510;-82
2021/12/05 05:09:23;;;;;;;;;0.00;0.00;;;;;6.63;64.07;100108.91;5019349;28;48189;-84
2021/12/05 05:11:49;;;;;;;;;0.00;0.00;;;;;6.66;63.82;100113.19;5019787;28;45438;-85
2021/12/05 05:14:15;;;;;;;;;0.00;0.00;;;;;6.69;64.07;100100.03;5020650;28;45365;-87
2021/12/05 05:16:41;;;;;;;;;0.00;0.00;;;;;6.68;64.35;100092.25;5020040;28;45585;-83
2021/12/05 05:19:08;;;;;;;;;0.00;0.00;;;;;6.70;63.82;100096.53;5018360;28;46603;-83
2021/12/05 05:21:53;;;;;;;;;1.50;0.00;;;;;6.68;64.27;100093.13;5023966;28;45747;-83
2021/12/05 05:24:53;;;;;;;;;0.00;0.00;;;;;6.69;64.71;100101.81;5020631;28;45228;-85
2021/12/05 05:48:31;;;;;;;;;1.25;0.00;;;;;6.86;64.40;100099.56;5019862;28;45224;-80
2021/12/05 05:50:58;;;;;;;;;0.00;0.00;;;;;6.89;64.61;100110.84;5015335;28;47124;-81
2021/12/05 05:53:24;;;;;;;;;0.00;0.00;;;;;6.86;64.68;100093.50;5032526;28;45822;-80
2021/12/05 05:55:49;;;;;;;;;0.00;0.00;;;;;6.90;64.65;100105.59;5020442;28;45316;-81
2021/12/05 05:58:17;;;;;;;;;0.00;0.00;;;;;6.90;64.16;100097.75;5018303;28;45572;-82
2021/12/05 06:01:01;;;;;;;;;0.00;0.00;;;;;6.89;63.95;100093.41;5013398;28;47219;-81
2021/12/05 06:03:26;;;;;;;;;1.00;1.00;;;;;6.89;64.58;100103.84;5015814;28;45637;-78
2021/12/05 06:05:55;;;;;;;;;0.25;0.25;;;;;6.93;64.17;100100.28;5019224;28;45500;-78
2021/12/05 06:08:24;;;;;;;;;0.00;0.00;;;;;6.90;63.85;100092.50;5019900;28;45335;-78
2021/12/05 06:10:51;;;;;;;;;0.50;0.00;;;;;6.90;63.97;100095.13;5019591;28;45279;-78
2021/12/05 06:13:18;;;;;;;;;0.00;0.00;;;;;6.92;64.04;100098.56;5018273;28;45774;-78
2021/12/05 06:15:46;;;;;;;;;0.25;0.25;;;;;6.91;63.89;100093.38;5020163;28;45351;-79
2021/12/05 06:18:12;;;;;;;;;0.00;0.00;;;;;6.94;64.15;100091.53;5019776;28;45463;-79
2021/12/05 06:20:37;;;;;;;;;0.50;0.00;;;;;6.98;64.24;100092.31;5016522;28;45482;-81
2021/12/05 06:23:03;;;;;;;;;0.00;0.00;;;;;6.97;64.32;100069.69;5012691;28;45269;-80
2021/12/05 06:25:34;;;;;;;;;0.00;0.00;;;;;7.00;64.60;100071.34;5019921;28;45277;-80
2021/12/05 06:28:08;;;;;;;;;0.00;0.00;;;;;7.02;64.15;100080.00;5019206;28;45357;-80
2021/12/05 06:30:47;;;;;;;;;1.00;0.00;;;;;7.04;64.52;100078.19;5019396;28;46346;-81
2021/12/05 06:48:51;;;;;;;;;0.00;0.00;;;;;7.06;64.38;100082.47;5018667;28;45334;-84
2021/12/05 06:51:22;;;;;;;;;0.00;0.00;;;;;7.05;64.06;100085.13;5018844;28;45564;-86
2021/12/05 06:53:48;;;;;;;;;1.25;0.00;;;;;7.06;64.28;100079.84;5019236;28;45312;-87
2021/12/05 06:56:14;;;;;;;;;0.00;0.00;;;;;7.10;64.60;100088.47;5019513;28;45457;-85
2021/12/05 06:58:40;;;;;;;;;0.00;0.00;;;;;7.11;64.23;100098.03;5018751;28;45479;-85
2021/12/05 07:01:08;;;;;;;;;1.00;0.00;;;;;7.09;64.31;100086.75;5011526;28;45329;-85
2021/12/05 07:03:36;;;;;;;;;3.00;0.00;;;;;7.14;64.26;100089.22;5016431;28;45596;-84
2021/12/05 07:08:32;;;;;;;;;0.00;0.00;;;;;7.08;64.53;100101.59;5018975;28;45434;-87
2021/12/05 07:11:09;;;;;;;;;2.00;0.50;;;;;7.03;64.41;100107.84;5015904;28;45558;-88
2021/12/05 07:19:15;;;;;;;;;1.00;1.00;;;;;7.04;65.25;100114.78;5021213;28;45410;-87
2021/12/05 07:24:16;;;;;;;;;1.75;0.75;;;;;7.01;65.29;100107.03;5018304;28;46068;-80
2021/12/05 07:26:52;;;;;;;;;2.00;0.50;;;;;6.97;65.75;100114.09;5011840;28;45328;-80
2021/12/05 07:40:27;;;;;;;;;0.00;0.00;;;;;6.90;66.24;100105.59;5013660;28;45434;-80
2021/12/05 07:42:56;;;;;;;;;0.00;0.00;;;;;6.90;65.80;100100.34;5021909;28;46498;-80
2021/12/05 07:45:34;;;;;;;;;0.50;0.00;;;;;6.93;66.37;100108.13;5021232;28;45614;-80
2021/12/05 07:48:09;;;;;;;;;1.50;1.50;;;;;6.95;65.97;100103.69;5009123;28;45276;-80
2021/12/05 07:51:13;;;;;;;;;0.50;0.50;;;;;6.94;66.96;100106.38;5021803;28;45286;-80
2021/12/05 07:53:46;;;;;;;;;0.00;0.00;;;;;6.93;66.68;100096.81;5022622;28;46055;-80
2021/12/05 07:56:21;;;;;;;;;2.00;1.00;;;;;6.98;66.46;100102.75;5018055;28;45887;-80
2021/12/05 08:15:11;;;;;;;;;2.50;1.00;;;;;7.11;67.11;100115.47;5008449;28;45433;-79
2021/12/05 08:17:38;;;;;;;;;3.00;1.25;;;;;7.14;66.78;100113.63;5008147;28;45434;-79
2021/12/05 08:20:06;;;;;;;;;1.50;1.00;;;;;7.16;67.18;100113.59;5017582;28;45405;-79
2021/12/05 08:22:32;;;;;;;;;0.00;0.00;;;;;7.16;66.65;100109.19;5020826;28;45557;-79
2021/12/05 08:25:07;;;;;;;;;0.00;0.00;;;;;7.20;66.62;100112.59;5021617;28;45579;-79
2021/12/05 08:27:32;;;;;;;;;4.50;1.75;;;;;7.22;66.89;100118.63;5019694;28;45259;-80
2021/12/05 08:30:06;;;;;;;;;2.00;2.00;;;;;7.23;66.86;100117.75;5019123;28;45414;-80
2021/12/05 08:32:50;;;;;;;;;1.00;1.00;;;;;7.27;67.32;100121.09;5021408;28;45319;-79
2021/12/05 08:35:50;;;;;;;;;1.00;1.00;;;;;7.29;66.95;100114.06;5020018;28;45523;-78
2021/12/05 09:30:15;;;;;;;;;3.25;3.25;;;;;7.62;67.00;100145.38;5020103;28;46047;-81
2021/12/05 10:03:09;;;;;;;;;4.00;2.50;;;;;8.16;67.37;100156.81;5018998;28;45418;-79
2021/12/05 10:16:22;;;;;;;;;1.00;1.00;;;;;8.32;67.06;100165.88;5006007;28;45970;-78
2021/12/05 10:37:25;;;;;;;;;6.00;4.00;;;;;8.55;67.29;100152.91;5015464;28;45839;-78
2021/12/05 10:40:10;;;;;;;;;3.00;3.00;;;;;8.63;67.62;100166.66;5011570;28;45495;-78
2021/12/05 10:42:45;;;;;;;;;4.00;4.00;;;;;8.70;68.07;100175.16;5019289;28;45496;-78
2021/12/05 10:45:19;;;;;;;;;2.25;2.00;;;;;8.81;67.49;100173.94;5020225;28;45517;-77
2021/12/05 10:47:51;;;;;;;;;5.00;3.00;;;;;8.87;66.70;100163.22;5016820;28;45742;-78
2021/12/05 10:50:51;;;;;;;;;4.00;3.00;;;;;8.89;66.49;100159.63;5009130;28;45422;-78
2021/12/05 10:53:41;;;;;;;;;3.00;3.00;;;;;8.94;67.15;100167.34;5008286;28;45651;-78
2021/12/05 10:56:18;;;;;;;;;5.50;5.50;;;;;8.99;67.38;100154.06;5014352;28;45476;-78
2021/12/05 10:58:43;;;;;;;;;6.75;4.25;;;;;9.04;67.44;100151.31;5017199;28;45952;-78
2021/12/05 11:01:16;;;;;;;;;3.00;3.00;;;;;9.10;66.44;100151.06;5008244;28;45405;-78
2021/12/05 11:03:43;;;;;;;;;2.50;2.00;;;;;9.14;66.29;100150.03;5011839;28;45548;-78
2021/12/05 11:06:32;;;;;;;;;3.00;3.00;;;;;9.15;65.92;100146.50;5014523;28;46424;-78
2021/12/05 11:09:06;;;;;;;;;4.00;2.00;;;;;9.13;65.90;100147.47;5013992;28;45367;-78
2021/12/05 11:11:33;;;;;;;;;6.75;1.50;;;;;9.13;65.74;100153.59;5013611;28;45319;-78
2021/12/05 11:14:01;;;;;;;;;3.50;3.00;;;;;9.10;66.42;100143.19;5018051;28;46162;-80
2021/12/05 11:16:39;;;;;;;;;3.00;3.00;;;;;9.11;66.06;100142.31;5011694;28;46582;-78
2021/12/05 11:19:16;;;;;;;;;4.50;3.00;;;;;9.12;66.65;100141.38;5016367;28;45537;-78
2021/12/05 11:21:49;;;;;;;;;2.00;2.00;;;;;9.13;65.92;100140.47;5020608;28;46284;-78
2021/12/05 11:24:19;;;;;;;;;2.50;2.50;;;;;9.16;66.34;100142.97;5018873;28;45334;-78
2021/12/05 11:27:11;;;;;;;;;8.00;5.75;;;;;9.16;65.78;100136.88;5019816;28;45370;-78
2021/12/05 11:29:59;;;;;;;;;3.00;2.00;;;;;9.18;65.95;100127.19;5009785;28;45451;-78
2021/12/05 11:32:50;;;;;;;;;2.00;2.00;;;;;9.18;66.30;100132.44;5012906;28;45401;-78
2021/12/05 11:35:21;;;;;;;;;3.50;2.00;;;;;9.16;65.79;100129.84;5007595;28;45484;-78
2021/12/05 11:38:07;;;;;;;;;2.50;2.00;;;;;9.19;66.12;100134.13;5019384;28;45439;-78
2021/12/05 11:41:03;;;;;;;;;2.50;2.50;;;;;9.16;66.31;100121.97;5014116;28;45435;-78
2021/12/05 11:43:41;;;;;;;;;5.00;3.75;;;;;9.18;65.81;100135.91;5013020;28;45285;-78
2021/12/05 11:46:08;;;;;;;;;9.00;7.00;;;;;9.17;65.70;100128.09;5019475;28;45499;-78
2021/12/05 11:48:39;;;;;;;;;3.75;3.75;;;;;9.16;65.68;100136.88;5020758;28;45494;-78
2021/12/05 11:51:34;;;;;;;;;3.00;3.00;;;;;9.14;65.57;100138.69;5016869;28;45310;-77
2021/12/05 11:54:13;;;;;;;;;4.50;3.25;;;;;9.11;65.83;100139.69;5019789;28;45252;-77
2021/12/05 11:57:02;;;;;;;;;9.50;7.75;;;;;8.99;65.57;100144.44;5014344;28;47150;-77
2021/12/05 11:59:36;;;;;;;;;9.25;8.00;;;;;8.89;66.04;100151.78;5004884;28;47896;-77
2021/12/05 12:02:11;;;;;;;;;4.50;3.00;;;;;8.83;65.98;100145.91;5009886;28;45818;-80
2021/12/05 12:04:52;;;;;;;;;13.00;13.00;;;;;8.80;66.33;100151.25;5019335;28;45414;-79
2021/12/05 12:07:53;;;;;;;;;5.00;4.00;;;;;8.74;66.42;100166.25;5018579;28;46375;-77
2021/12/05 12:10:19;;;;;;;;;3.75;3.75;;;;;8.61;66.41;100171.09;5012983;28;46447;-78
2021/12/05 12:13:00;;;;;;;;;3.33;3.33;;;;;8.53;67.06;100168.69;5015143;28;45622;-77
2021/12/05 12:15:27;;;;;;;;;7.25;6.75;;;;;8.50;67.11;100178.41;5013076;28;45343;-77
2021/12/05 12:17:57;;;;;;;;;9.75;6.75;;;;;8.44;67.35;100176.88;5016151;28;46429;-78
2021/12/05 12:20:26;;;;;;;;;8.50;8.50;;;;;8.35;67.04;100166.66;5012595;28;48162;-78
2021/12/05 12:22:54;;;;;;;;;9.25;6.75;;;;;8.20;66.71;100169.75;5014478;28;45329;-78
2021/12/05 12:25:23;;;;;;;;;13.25;9.00;;;;;8.10;66.06;100176.19;5019397;28;45343;-78
2021/12/05 12:27:49;;;;;;;;;22.50;17.50;;;;;8.02;66.67;100172.97;4981205;28;1263335;-78
2021/12/05 12:30:24;;;;;;;;;1.50;1.50;;;;;7.98;66.52;100165.19;5016611;28;45625;-78
2021/12/05 12:32:55;;;;;;;;;7.00;7.00;;;;;7.95;66.70;100174.91;5005123;28;45514;-78
2021/12/05 12:35:26;;;;;;;;;6.25;4.00;;;;;7.84;66.96;100186.56;5017346;28;45942;-78
2021/12/05 12:37:56;;;;;;;;;22.50;16.25;;;;;7.82;66.95;100185.75;5007045;28;45297;-78
2021/12/05 12:40:44;;;;;;;;;5.50;5.50;;;;;7.75;66.88;100182.44;5003780;28;47659;-77
2021/12/05 12:43:40;;;;;;;;;17.75;14.25;;;;;7.70;67.61;100181.75;5012523;28;45410;-77
2021/12/05 12:46:27;;;;;;;;;17.25;15.50;;;;;7.63;66.63;100191.53;5021175;28;45442;-77
2021/12/05 12:48:55;;;;;;;;;2.25;2.25;;;;;7.56;66.56;100190.00;5019261;28;45443;-77
2021/12/05 12:51:26;;;;;;;;;8.50;6.25;;;;;7.53;67.07;100204.00;5007251;28;45826;-77
2021/12/05 12:53:58;;;;;;;;;6.00;6.00;;;;;7.45;67.11;100199.91;5016205;28;45328;-77
2021/12/05 12:56:24;;;;;;;;;22.50;18.00;;;;;7.46;67.45;100199.88;5013248;28;45347;-76
2021/12/05 12:59:01;;;;;;;;;18.00;14.25;;;;;7.49;67.20;100205.00;5011603;28;45549;-76
2021/12/05 13:10:09;;;;;;;;;32.00;24.00;;;;;7.54;67.92;100210.09;5010601;28;45271;-77
2021/12/05 13:12:40;;;;;;;;;15.00;10.75;;;;;7.58;67.08;100208.28;5008895;28;47379;-77
2021/12/05 13:15:07;;;;;;;;;4.50;4.00;;;;;7.58;66.90;100205.66;5015943;28;45596;-77
2021/12/05 13:17:46;;;;;;;;;7.50;7.50;;;;;7.54;67.17;100202.25;5011734;28;45541;-77
2021/12/05 13:20:16;;;;;;;;;5.50;5.25;;;;;7.53;67.60;100208.41;5008695;28;45384;-77
2021/12/05 13:23:00;;;;;;;;;10.00;9.25;;;;;7.57;67.37;100209.16;5015240;28;47209;-77
2021/12/05 13:25:28;;;;;;;;;10.75;6.50;;;;;7.56;67.95;100215.28;5003938;28;45302;-77
2021/12/05 13:27:54;;;;;;;;;6.25;5.25;;;;;7.57;67.21;100212.66;5023835;28;45370;-77
2021/12/05 13:30:32;;;;;;;;;12.50;11.25;;;;;7.57;67.42;100220.50;5015905;28;47026;-77
2021/12/05 13:33:16;;;;;;;;;7.00;7.00;;;;;7.59;67.46;100220.44;5011097;28;45439;-77
2021/12/05 13:35:43;;;;;;;;;8.50;7.50;;;;;7.60;67.63;100222.16;5019233;28;45279;-77
2021/12/05 13:38:31;;;;;;;;;4.50;4.50;;;;;7.65;67.89;100221.09;5016475;28;45349;-78
2021/12/05 13:41:10;;;;;;;;;14.50;12.00;;;;;7.66;68.32;100221.97;5014698;28;46133;-77
2021/12/05 13:43:36;;;;;;;;;8.25;6.25;;;;;7.68;67.64;100216.72;5014542;28;48034;-77
2021/12/05 13:46:35;;;;;;;;;9.00;6.00;;;;;7.70;67.26;100226.22;5020241;28;45725;-77
2021/12/05 13:49:23;;;;;;;;;4.25;4.25;;;;;7.73;67.47;100228.75;5020398;28;45291;-77
2021/12/05 13:51:48;;;;;;;;;8.50;8.25;;;;;7.76;67.48;100228.66;5005449;28;47538;-77
2021/12/05 13:54:24;;;;;;;;;11.75;9.25;;;;;7.80;67.37;100229.44;5019491;28;45602;-77
2021/12/05 13:57:06;;;;;;;;;12.50;8.50;;;;;7.85;67.31;100240.59;5017428;28;46166;-77
2021/12/05 13:59:32;;;;;;;;;10.50;8.00;;;;;7.93;67.29;100234.28;5011913;28;45448;-77
2021/12/05 14:01:57;;;;;;;;;8.00;8.00;;;;;7.97;67.60;100246.38;5006746;28;45382;-77
2021/12/05 14:04:27;;;;;;;;;10.25;8.50;;;;;8.02;67.42;100247.09;5019042;28;46275;-77
2021/12/05 14:07:01;;;;;;;;;8.75;7.75;;;;;8.10;67.75;100242.47;5016628;28;45992;-77
2021/12/05 14:09:43;;;;;;;;;16.00;12.50;;;;;8.18;67.39;100254.47;5004864;28;45428;-77
2021/12/05 14:12:13;;;;;;;;;12.75;10.00;;;;;8.22;67.87;100256.13;5011885;28;46132;-77
2021/12/05 14:14:46;;;;;;;;;12.50;8.25;;;;;8.25;67.09;100255.16;5009753;28;45387;-77
2021/12/05 14:17:28;;;;;;;;;10.25;7.75;;;;;8.27;66.83;100259.41;5015847;28;45401;-79
2021/12/05 14:20:17;;;;;;;;;8.00;6.50;;;;;8.25;67.25;100250.75;5013676;28;45426;-78
2021/12/05 14:22:45;;;;;;;;;4.00;4.00;;;;;8.27;66.88;100251.56;5011433;28;45495;-78
2021/12/05 14:25:14;;;;;;;;;7.75;7.75;;;;;8.31;66.92;100258.44;5014545;28;45484;-78
2021/12/05 14:27:45;;;;;;;;;12.00;9.50;;;;;8.36;67.03;100267.91;5006635;28;45548;-78
2021/12/05 14:30:18;;;;;;;;;10.25;6.00;;;;;8.38;66.14;100276.56;5012572;28;45532;-78
2021/12/05 14:32:48;;;;;;;;;11.00;6.75;;;;;8.40;66.16;100280.00;5000576;28;46426;-78
2021/12/05 14:35:17;;;;;;;;;16.25;15.25;;;;;8.43;66.30;100285.13;5015025;28;47058;-78
2021/12/05 14:37:46;;;;;;;;;9.50;7.00;;;;;8.44;66.87;100284.25;5014909;28;46057;-78
2021/12/05 14:40:18;;;;;;;;;7.50;7.50;;;;;8.46;67.12;100284.19;5016550;28;45435;-78
2021/12/05 14:42:48;;;;;;;;;8.75;8.00;;;;;8.47;66.91;100286.75;5003115;28;47331;-78
2021/12/05 14:45:22;;;;;;;;;9.50;8.50;;;;;8.51;67.38;100284.91;5019752;28;47599;-77
2021/12/05 14:47:49;;;;;;;;;5.50;5.00;;;;;8.54;67.05;100288.25;5018823;28;46092;-78
2021/12/05 14:50:27;;;;;;;;;7.75;6.00;;;;;8.53;66.49;100294.44;5018745;28;45579;-78
2021/12/05 14:52:56;;;;;;;;;9.00;7.00;;;;;8.55;66.65;100305.72;5013827;28;47235;-76
2021/12/05 14:55:25;;;;;;;;;6.25;4.75;;;;;8.57;66.93;100310.88;5016110;28;45405;-77
2021/12/05 14:57:58;;;;;;;;;11.25;7.50;;;;;8.59;66.67;100301.28;5017756;28;45920;-79
2021/12/05 15:00:33;;;;;;;;;5.00;5.00;;;;;8.59;66.83;100303.91;5014172;28;45395;-78
2021/12/05 15:03:02;;;;;;;;;8.75;7.00;;;;;8.57;66.68;100308.28;5016304;28;45749;-78
2021/12/05 15:05:28;;;;;;;;;10.00;8.25;;;;;8.58;67.35;100317.00;5010234;28;46236;-78
2021/12/05 15:08:20;;;;;;;;;12.25;8.75;;;;;8.60;67.04;100312.59;5018692;28;45417;-78
2021/12/05 15:10:51;;;;;;;;;18.00;16.50;;;;;8.58;66.71;100314.38;5004708;28;45514;-77
2021/12/05 15:13:17;;;;;;;;;12.75;9.75;;;;;8.58;66.21;100324.84;5013892;28;45343;-79
2021/12/05 15:15:43;;;;;;;;;6.75;4.25;;;;;8.51;66.53;100325.06;5026139;28;46712;-78
2021/12/05 15:18:28;;;;;;;;;10.00;8.50;;;;;8.49;66.82;100334.72;5015950;28;45331;-78
2021/12/05 15:20:56;;;;;;;;;4.75;4.00;;;;;8.52;67.29;100339.03;5007611;28;45415;-79
2021/12/05 15:23:28;;;;;;;;;11.00;9.25;;;;;8.51;67.08;100335.53;5031959;28;47451;-78
2021/12/05 15:25:53;;;;;;;;;7.25;7.25;;;;;8.52;66.93;100342.47;5014441;28;45507;-78
2021/12/05 15:28:19;;;;;;;;;21.25;18.25;;;;;8.55;67.00;100352.00;5006196;28;45517;-78
2021/12/05 15:30:47;;;;;;;;;16.75;15.00;;;;;8.55;67.53;100347.63;5017185;28;45593;-77
2021/12/05 15:33:17;;;;;;;;;11.00;10.00;;;;;8.58;67.20;100362.44;5020743;28;47395;-77
2021/12/05 15:35:44;;;;;;;;;16.75;16.50;;;;;8.55;66.91;100363.34;5016286;28;48875;-77
2021/12/05 15:38:13;;;;;;;;;9.75;8.75;;;;;8.56;67.48;100377.31;5017511;28;45455;-77
2021/12/05 15:40:42;;;;;;;;;9.25;9.25;;;;;8.53;67.65;100373.00;5011854;28;45545;-75
2021/12/05 15:43:13;;;;;;;;;10.75;9.00;;;;;8.56;67.84;100377.31;5018870;28;45493;-75
2021/12/05 15:45:42;;;;;;;;;9.00;8.00;;;;;8.52;67.76;100367.84;5020363;28;48379;-77
2021/12/05 15:48:08;;;;;;;;;9.00;7.00;;;;;8.57;67.60;100386.88;5018773;28;45417;-77
2021/12/05 15:50:37;;;;;;;;;10.75;10.75;;;;;8.58;67.90;100383.38;5006901;28;45505;-77
2021/12/05 15:53:05;;;;;;;;;21.25;16.50;;;;;8.60;67.98;100405.16;5017804;28;45475;-77
2021/12/05 15:55:34;;;;;;;;;5.25;5.25;;;;;8.58;67.66;100400.81;5009824;28;48927;-81
2021/12/05 15:58:10;;;;;;;;;8.50;6.50;;;;;8.54;67.67;100405.31;5018663;28;45501;-81
2021/12/05 16:00:46;;;;;;;;;6.25;6.25;;;;;8.51;67.55;100408.88;5014534;28;47235;-81
2021/12/05 16:03:17;;;;;;;;;7.25;6.00;;;;;8.51;67.64;100414.13;5005874;28;45301;-81
2021/12/05 16:05:46;;;;;;;;;7.25;7.25;;;;;8.46;67.76;100425.63;5020221;28;45567;-81
2021/12/05 16:08:15;;;;;;;;;13.50;9.00;;;;;8.46;67.45;100420.38;5003558;28;46694;-81
2021/12/05 16:10:44;;;;;;;;;5.75;5.00;;;;;8.45;67.59;100437.84;5026952;28;45367;-81
2021/12/05 16:13:13;;;;;;;;;8.00;7.00;;;;;8.46;67.93;100446.59;5020064;28;45470;-81
2021/12/05 16:15:41;;;;;;;;;5.50;5.50;;;;;8.42;66.95;100441.41;5016348;28;48551;-81
2021/12/05 16:18:07;;;;;;;;;10.75;9.25;;;;;8.44;67.90;100455.31;5027872;28;45960;-81
2021/12/05 16:20:49;;;;;;;;;9.25;9.00;;;;;8.44;67.88;100459.72;5019417;28;45287;-81
2021/12/05 16:23:17;;;;;;;;;12.75;9.25;;;;;8.44;67.52;100464.97;5008043;28;45298;-79
2021/12/05 16:26:03;;;;;;;;;22.75;20.00;;;;;8.46;67.50;100467.53;5021398;28;46297;-79
2021/12/05 16:28:31;;;;;;;;;12.25;10.00;;;;;8.47;67.70;100464.03;5020581;28;45410;-78
2021/12/05 16:31:03;;;;;;;;;8.00;6.33;;;;;8.50;67.67;100466.53;5018895;28;45562;-81
2021/12/05 16:33:30;;;;;;;;;4.75;3.50;;;;;8.47;67.10;100477.13;5019274;28;45518;-81
2021/12/05 16:35:58;;;;;;;;;4.25;4.25;;;;;8.42;67.31;100472.03;5013842;28;45548;-78
2021/12/05 16:38:35;;;;;;;;;13.00;8.00;;;;;8.42;67.14;100478.09;5009546;28;45284;-79
2021/12/05 16:41:20;;;;;;;;;5.50;5.50;;;;;8.43;67.09;100485.06;5019850;28;45383;-79
2021/12/05 16:44:10;;;;;;;;;7.00;6.50;;;;;8.44;66.85;100488.53;5016793;28;46243;-81
2021/12/05 16:46:51;;;;;;;;;8.75;7.75;;;;;8.44;67.45;100484.13;5010852;28;45502;-79
2021/12/05 16:49:21;;;;;;;;;19.50;15.25;;;;;8.48;67.18;100498.03;5015285;28;45706;-79
2021/12/05 16:51:51;;;;;;;;;13.25;10.75;;;;;8.50;67.39;100501.47;5020805;28;45442;-79
2021/12/05 16:54:44;;;;;;;;;13.75;13.50;;;;;8.55;67.21;100504.81;5018159;28;46153;-79
2021/12/05 16:57:13;;;;;;;;;9.00;9.00;;;;;8.52;66.90;100506.66;5010638;28;45391;-79
2021/12/05 16:59:41;;;;;;;;;15.50;14.75;;;;;8.56;67.28;100516.16;5013205;28;45654;-79
2021/12/05 17:02:22;;;;;;;;;14.00;11.25;;;;;8.55;66.89;100515.28;5011150;28;45537;-79
2021/12/05 17:05:00;;;;;;;;;8.75;7.75;;;;;8.51;67.12;100516.28;5011862;28;45422;-79
2021/12/05 17:07:45;;;;;;;;;10.50;10.50;;;;;8.50;67.36;100522.41;5015780;28;47453;-78
2021/12/05 17:10:25;;;;;;;;;10.00;9.25;;;;;8.55;67.49;100525.75;5015255;28;45395;-80
2021/12/05 17:13:07;;;;;;;;;14.25;11.00;;;;;8.59;67.19;100523.97;5019217;28;45260;-80